Time;durP1;ratioP1;P1;durP2;ratioP2;P2;SDS_P1;SDS_P2;PMS_P1;PMS_P2;Temp;Humidity;BMP_temperature;BMP_pressure;BME280_temperature;BME280_humidity;BME280_pressure;Samples;Min_cycle;Max_cycle;Signal;HPM_P1;HPM_P2
2022/08/07 00:02:06;;;;;;;1999.90;999.90;;;14.30;99.90;;;;;;4956262;29;20202;-64
2022/08/07 00:04:33;;;;;;;1999.90;999.90;;;14.30;99.90;;;;;;4956261;29;20207;-63
2022/08/07 00:07:00;;;;;;;1999.90;999.90;;;14.20;99.90;;;;;;4956116;29;20207;-63
2022/08/07 00:09:27;;;;;;;1999.90;999.90;;;14.20;99.90;;;;;;4955689;29;20691;-63
2022/08/07 00:11:55;;;;;;;1999.90;999.90;;;14.10;99.90;;;;;;4955869;29;20239;-63
2022/08/07 00:14:22;;;;;;;1999.90;999.90;;;14.10;99.90;;;;;;4955957;29;20203;-63
2022/08/07 00:16:50;;;;;;;1999.90;999.90;;;14.10;99.90;;;;;;4955843;28;20199;-63
2022/08/07 00:19:18;;;;;;;1999.90;999.90;;;14.10;99.90;;;;;;4955573;29;20245;-63
2022/08/07 00:21:45;;;;;;;1999.90;999.90;;;14.00;99.90;;;;;;4955969;29;20203;-63
2022/08/07 00:24:12;;;;;;;1999.90;999.90;;;14.00;99.90;;;;;;4955917;29;20560;-63
2022/08/07 00:26:39;;;;;;;1999.90;999.90;;;14.00;99.90;;;;;;4955757;29;20203;-63
2022/08/07 00:29:06;;;;;;;1999.90;999.90;;;14.00;99.90;;;;;;4958466;28;20708;-65
2022/08/07 00:31:33;;;;;;;1999.90;999.90;;;14.00;99.90;;;;;;4974961;28;20194;-65
2022/08/07 00:34:00;;;;;;;1999.90;999.90;;;14.00;99.90;;;;;;4974857;28;20207;-65
2022/08/07 00:36:29;;;;;;;1999.90;999.90;;;14.00;99.90;;;;;;4974522;28;20701;-65
2022/08/07 00:38:56;;;;;;;1999.90;999.90;;;14.00;99.90;;;;;;4974673;28;20210;-65
2022/08/07 00:41:27;;;;;;;1999.90;999.90;;;14.00;99.90;;;;;;4974358;28;20280;-65
2022/08/07 00:43:54;;;;;;;1999.90;999.90;;;14.00;99.90;;;;;;4974409;28;20202;-65
2022/08/07 00:46:21;;;;;;;1999.90;999.90;;;14.00;99.90;;;;;;4974624;28;20206;-65
2022/08/07 00:48:48;;;;;;;1999.90;999.90;;;13.90;99.90;;;;;;4974642;28;20199;-65
2022/08/07 00:51:15;;;;;;;1999.90;999.90;;;13.90;99.90;;;;;;4974299;28;20214;-65
2022/08/07 00:53:44;;;;;;;1999.90;999.90;;;13.80;99.90;;;;;;4962726;28;20274;-65
2022/08/07 00:56:14;;;;;;;1999.90;999.90;;;13.80;99.90;;;;;;4955201;29;20237;-65
2022/08/07 00:58:43;;;;;;;1999.90;999.90;;;13.80;99.90;;;;;;4955087;29;20293;-65
2022/08/07 01:01:10;;;;;;;1999.90;999.90;;;13.70;99.90;;;;;;4955081;29;20195;-65
2022/08/07 01:03:37;;;;;;;1999.90;999.90;;;13.80;99.90;;;;;;4954809;29;20843;-65
2022/08/07 01:06:04;;;;;;;1999.90;999.90;;;13.70;99.90;;;;;;4955266;29;20202;-65
2022/08/07 01:08:31;;;;;;;1999.90;999.90;;;13.60;99.90;;;;;;4955096;29;20219;-65
2022/08/07 01:11:01;;;;;;;1999.90;999.90;;;13.50;99.90;;;;;;4954559;29;20234;-65
2022/08/07 01:13:28;;;;;;;1999.90;999.90;;;13.40;99.90;;;;;;4954622;29;20202;-65
2022/08/07 01:15:56;;;;;;;1999.90;999.90;;;13.50;99.90;;;;;;4954848;29;20217;-65
2022/08/07 01:18:24;;;;;;;1999.90;999.90;;;13.50;99.90;;;;;;4954840;29;20203;-65
2022/08/07 01:20:55;;;;;;;1999.90;999.90;;;13.50;99.90;;;;;;4954442;29;20901;-64
2022/08/07 01:23:24;;;;;;;1999.90;999.90;;;13.50;99.90;;;;;;4954660;29;20659;-63
2022/08/07 01:25:51;;;;;;;1999.90;999.90;;;13.40;99.90;;;;;;4954733;29;20210;-63
2022/08/07 01:28:18;;;;;;;1999.90;999.90;;;13.40;99.90;;;;;;4954140;28;20212;-63
2022/08/07 01:30:47;;;;;;;1999.90;999.90;;;13.40;99.90;;;;;;4954806;29;20208;-63
2022/08/07 01:33:14;;;;;;;1999.90;999.90;;;13.40;99.90;;;;;;4954419;29;20560;-62
2022/08/07 01:35:42;;;;;;;1999.90;999.90;;;13.40;99.90;;;;;;4954332;29;20575;-63
2022/08/07 01:38:09;;;;;;;1999.90;999.90;;;13.40;99.90;;;;;;4954434;29;20195;-63
2022/08/07 01:40:39;;;;;;;1999.90;999.90;;;13.40;99.90;;;;;;4954113;29;20861;-63
2022/08/07 01:43:07;;;;;;;1999.90;999.90;;;13.40;99.90;;;;;;4954317;29;20194;-63
2022/08/07 01:45:34;;;;;;;1999.90;999.90;;;13.40;99.90;;;;;;4954237;29;20199;-63
2022/08/07 01:48:02;;;;;;;1999.90;999.90;;;13.40;99.90;;;;;;4954187;29;20206;-62
2022/08/07 01:50:31;;;;;;;1999.90;999.90;;;13.30;99.90;;;;;;4954096;29;20191;-63
2022/08/07 01:53:00;;;;;;;1999.90;999.90;;;13.30;99.90;;;;;;4954403;29;20206;-63
2022/08/07 01:55:34;;;;;;;1999.90;999.90;;;13.20;99.90;;;;;;4954705;29;20257;-63
2022/08/07 01:58:08;;;;;;;1999.90;999.90;;;13.20;99.90;;;;;;4954372;29;20194;-63
2022/08/07 02:00:37;;;;;;;1999.90;999.90;;;13.10;99.90;;;;;;4954081;29;20576;-63
2022/08/07 02:03:09;;;;;;;1999.90;999.90;;;13.00;99.90;;;;;;4954365;29;20199;-63
2022/08/07 02:05:41;;;;;;;1999.90;999.90;;;12.90;99.90;;;;;;4954111;29;20977;-63
2022/08/07 02:08:11;;;;;;;1999.90;999.90;;;13.00;99.90;;;;;;4954229;29;20191;-63
2022/08/07 02:10:40;;;;;;;1999.90;999.90;;;13.10;99.90;;;;;;4953879;29;20722;-63
2022/08/07 02:13:10;;;;;;;1999.90;999.90;;;13.10;99.90;;;;;;4953964;29;20196;-63
2022/08/07 02:15:39;;;;;;;1999.90;999.90;;;13.10;99.90;;;;;;4953986;29;20195;-63
2022/08/07 02:18:10;;;;;;;1999.90;999.90;;;13.10;99.90;;;;;;4954214;29;20209;-63
2022/08/07 02:20:39;;;;;;;1999.90;999.90;;;13.00;99.90;;;;;;4954195;29;20207;-63
2022/08/07 02:23:08;;;;;;;1999.90;999.90;;;13.10;99.90;;;;;;4954249;29;20207;-63
2022/08/07 02:25:38;;;;;;;1999.90;999.90;;;13.10;99.90;;;;;;4954197;29;20191;-63
2022/08/07 02:28:06;;;;;;;1999.90;999.90;;;13.10;99.90;;;;;;4954128;29;20202;-63
2022/08/07 02:30:36;;;;;;;1999.90;999.90;;;13.10;99.90;;;;;;4954197;29;20206;-63
2022/08/07 02:33:05;;;;;;;1999.90;999.90;;;13.00;99.90;;;;;;4953848;29;20196;-62
2022/08/07 02:35:34;;;;;;;1999.90;999.90;;;13.00;99.90;;;;;;4954029;29;20206;-63
2022/08/07 02:38:03;;;;;;;1999.90;999.90;;;13.00;99.90;;;;;;4953648;28;20203;-63
2022/08/07 02:40:32;;;;;;;1999.90;999.90;;;13.00;99.90;;;;;;4957556;29;20237;-63
2022/08/07 02:42:59;;;;;;;1999.90;999.90;;;13.00;99.90;;;;;;4957621;29;20199;-63
2022/08/07 02:45:30;;;;;;;1999.90;999.90;;;13.00;99.90;;;;;;4957898;29;20207;-63
2022/08/07 02:47:59;;;;;;;1999.90;999.90;;;12.90;99.90;;;;;;4957680;29;20187;-63
2022/08/07 02:50:26;;;;;;;1999.90;999.90;;;12.90;99.90;;;;;;4957548;29;20206;-63
2022/08/07 02:52:58;;;;;;;1999.90;999.90;;;12.90;99.90;;;;;;4957203;29;20198;-63
2022/08/07 02:55:26;;;;;;;1999.90;999.90;;;12.80;99.90;;;;;;4957529;29;20186;-63
2022/08/07 02:57:57;;;;;;;1999.90;999.90;;;12.80;99.90;;;;;;4957134;29;20287;-63
2022/08/07 03:00:26;;;;;;;1999.90;999.90;;;12.60;99.90;;;;;;4957338;29;20204;-62
2022/08/07 03:02:54;;;;;;;1999.90;999.90;;;12.50;99.90;;;;;;4957444;29;20206;-63
2022/08/07 03:05:24;;;;;;;1999.90;999.90;;;12.50;99.90;;;;;;4956925;29;20209;-63
2022/08/07 03:07:53;;;;;;;1999.90;999.90;;;12.60;99.90;;;;;;4957165;29;20203;-63
2022/08/07 03:10:21;;;;;;;1999.90;999.90;;;12.50;99.90;;;;;;4956749;29;20199;-63
2022/08/07 03:12:49;;;;;;;1999.90;999.90;;;12.50;99.90;;;;;;4957066;29;20515;-62
2022/08/07 03:15:17;;;;;;;1999.90;999.90;;;12.50;99.90;;;;;;4957113;29;20203;-63
2022/08/07 03:17:45;;;;;;;1999.90;999.90;;;12.60;99.90;;;;;;4957028;29;20207;-62
2022/08/07 03:20:12;;;;;;;1999.90;999.90;;;12.60;99.90;;;;;;4956587;29;20225;-63
2022/08/07 03:22:43;;;;;;;1999.90;999.90;;;12.70;99.90;;;;;;4956883;29;20202;-63
2022/08/07 03:25:10;;;;;;;1999.90;999.90;;;12.70;99.90;;;;;;4956902;29;20225;-63
2022/08/07 03:27:38;;;;;;;1999.90;999.90;;;12.70;99.90;;;;;;4956522;29;20210;-63
2022/08/07 03:30:06;;;;;;;1999.90;999.90;;;12.70;99.90;;;;;;4967156;28;20203;-63
2022/08/07 03:32:38;;;;;;;1999.90;999.90;;;12.70;99.90;;;;;;4975733;28;20210;-62
2022/08/07 03:35:09;;;;;;;1999.90;999.90;;;12.70;99.90;;;;;;4976129;28;20179;-63
2022/08/07 03:37:38;;;;;;;1999.90;999.90;;;12.70;99.90;;;;;;4975916;28;20184;-63
2022/08/07 03:40:08;;;;;;;1999.90;999.90;;;12.60;99.90;;;;;;4975651;28;20214;-62
2022/08/07 03:42:36;;;;;;;1999.90;999.90;;;12.60;99.90;;;;;;4975933;28;20198;-62
2022/08/07 03:45:04;;;;;;;1999.90;999.90;;;12.60;99.90;;;;;;4975935;28;20576;-62
2022/08/07 03:47:32;;;;;;;1999.90;999.90;;;12.50;99.90;;;;;;4975809;28;20202;-62
2022/08/07 03:49:59;;;;;;;1999.90;999.90;;;12.50;99.90;;;;;;4975176;28;20197;-63
2022/08/07 03:52:28;;;;;;;1999.90;999.90;;;12.40;99.90;;;;;;4975531;28;20678;-62
2022/08/07 03:54:57;;;;;;;1999.90;999.90;;;12.20;99.90;;;;;;4975523;28;20317;-63
2022/08/07 03:57:27;;;;;;;1999.90;999.90;;;12.20;99.90;;;;;;4975653;28;20211;-63
2022/08/07 03:59:55;;;;;;;1999.90;999.90;;;12.30;99.90;;;;;;4975658;28;20221;-63
2022/08/07 04:02:22;;;;;;;1999.90;999.90;;;12.40;99.90;;;;;;4975416;28;20208;-63
2022/08/07 04:04:50;;;;;;;1999.90;999.90;;;12.30;99.90;;;;;;4975505;28;20701;-62
2022/08/07 04:07:18;;;;;;;1999.90;999.90;;;12.30;99.90;;;;;;4975376;28;20252;-63
2022/08/07 04:09:46;;;;;;;1999.90;999.90;;;12.20;99.90;;;;;;4975135;28;20197;-64
2022/08/07 04:12:14;;;;;;;1999.90;999.90;;;12.20;99.90;;;;;;4975171;28;20245;-62
2022/08/07 04:14:43;;;;;;;1999.90;999.90;;;12.20;99.90;;;;;;4975547;28;20209;-63
2022/08/07 04:17:12;;;;;;;1999.90;999.90;;;12.20;99.90;;;;;;4975339;28;20206;-66
2022/08/07 04:19:40;;;;;;;1999.90;999.90;;;12.30;99.90;;;;;;4975169;28;20218;-62
2022/08/07 04:22:08;;;;;;;1999.90;999.90;;;12.20;99.90;;;;;;4974921;28;20216;-62
2022/08/07 04:24:36;;;;;;;1999.90;999.90;;;12.30;99.90;;;;;;4975130;28;20218;-63
2022/08/07 04:27:04;;;;;;;1999.90;999.90;;;12.30;99.90;;;;;;4975196;28;20212;-62
2022/08/07 04:29:31;;;;;;;1999.90;999.90;;;12.30;99.90;;;;;;4975217;28;20202;-62
2022/08/07 04:32:01;;;;;;;1999.90;999.90;;;12.30;99.90;;;;;;4975044;28;20209;-62
2022/08/07 04:34:29;;;;;;;1999.90;999.90;;;12.30;99.90;;;;;;4975060;28;20207;-62
2022/08/07 04:36:57;;;;;;;1999.90;999.90;;;12.30;99.90;;;;;;4975081;28;20582;-62
2022/08/07 04:39:24;;;;;;;1999.90;999.90;;;12.20;99.90;;;;;;4975027;28;20238;-63
2022/08/07 04:41:51;;;;;;;1999.90;999.90;;;12.10;99.90;;;;;;4975759;28;20224;-63
2022/08/07 04:44:20;;;;;;;1999.90;999.90;;;12.00;99.90;;;;;;4976384;28;20264;-64
2022/08/07 04:46:57;;;;;;;1999.90;999.90;;;12.00;99.90;;;;;;4975406;28;20198;-66
2022/08/07 04:49:35;;;;;;;1999.90;999.90;;;12.00;99.90;;;;;;4974413;28;20709;-63
2022/08/07 04:52:10;;;;;;;1999.90;999.90;;;12.00;99.90;;;;;;4974599;28;20646;-63
2022/08/07 04:54:45;;;;;;;1999.90;999.90;;;12.00;99.90;;;;;;4974769;28;20198;-63
2022/08/07 04:57:22;;;;;;;1999.90;999.90;;;12.00;99.90;;;;;;4974535;28;20176;-66
2022/08/07 04:59:56;;;;;;;1999.90;999.90;;;12.10;99.90;;;;;;4973890;28;20213;-62
2022/08/07 05:02:29;;;;;;;1999.90;999.90;;;12.20;99.90;;;;;;4954457;28;20186;-62
2022/08/07 05:05:03;;;;;;;1999.90;999.90;;;12.20;99.90;;;;;;4955220;29;20193;-64
2022/08/07 05:07:37;;;;;;;1999.90;999.90;;;12.30;99.90;;;;;;4970232;28;20206;-64
2022/08/07 05:10:11;;;;;;;1999.90;999.90;;;12.30;99.90;;;;;;4974180;28;20181;-65
2022/08/07 05:12:42;;;;;;;1999.90;999.90;;;12.30;99.90;;;;;;4974374;28;20186;-64
2022/08/07 05:15:16;;;;;;;1999.90;999.90;;;12.40;99.90;;;;;;4974390;28;20190;-64
2022/08/07 05:17:47;;;;;;;1999.90;999.90;;;12.50;99.90;;;;;;4958015;28;20193;-63
2022/08/07 05:20:22;;;;;;;1999.90;999.90;;;12.60;99.90;;;;;;4958908;28;20207;-64
2022/08/07 05:22:52;;;;;;;1999.90;999.90;;;12.80;99.90;;;;;;4954739;29;20194;-64
2022/08/07 05:25:21;;;;;;;1999.90;999.90;;;12.80;99.90;;;;;;4954908;29;20421;-63
2022/08/07 05:27:49;;;;;;;1999.90;999.90;;;13.10;99.90;;;;;;4963226;28;20197;-64
2022/08/07 05:30:17;;;;;;;1999.90;999.90;;;13.70;99.90;;;;;;4963474;28;20195;-64
2022/08/07 05:32:46;;;;;;;1999.90;999.90;;;14.20;99.90;;;;;;4955284;29;20221;-64
2022/08/07 05:35:17;;;;;;;1999.90;999.90;;;14.70;99.90;;;;;;4968374;28;20198;-63
2022/08/07 05:37:45;;;;;;;1999.90;999.90;;;15.10;99.90;;;;;;4974000;28;20201;-65
2022/08/07 05:40:13;;;;;;;1999.90;999.90;;;15.20;99.90;;;;;;4960363;28;20227;-63
2022/08/07 05:42:40;;;;;;;1999.90;999.90;;;15.20;99.90;;;;;;4955017;29;20206;-63
2022/08/07 05:45:08;;;;;;;1999.90;999.90;;;15.10;99.90;;;;;;4954932;29;20275;-63
2022/08/07 05:47:36;;;;;;;1999.90;999.90;;;14.80;99.90;;;;;;4954633;29;20207;-64
2022/08/07 05:50:05;;;;;;;1999.90;999.90;;;14.70;99.90;;;;;;4954277;29;20669;-63
2022/08/07 05:52:33;;;;;;;1999.90;999.90;;;14.50;99.90;;;;;;4954712;29;20191;-64
2022/08/07 05:55:02;;;;;;;1999.90;999.90;;;14.50;99.90;;;;;;4954720;29;20210;-64
2022/08/07 05:57:30;;;;;;;1999.90;999.90;;;14.50;99.90;;;;;;4954382;29;20203;-63
2022/08/07 06:00:00;;;;;;;1999.90;999.90;;;14.70;99.90;;;;;;4964924;28;20199;-63
2022/08/07 06:02:30;;;;;;;1999.90;999.90;;;15.10;99.90;;;;;;4961870;28;20206;-63
2022/08/07 06:05:02;;;;;;;1999.90;999.90;;;15.90;99.90;;;;;;4970535;28;20254;-63
2022/08/07 06:07:30;;;;;;;1999.90;999.90;;;16.80;99.90;;;;;;4973601;28;20196;-63
2022/08/07 06:09:59;;;;;;;1999.90;999.90;;;17.00;99.90;;;;;;4973686;28;20252;-65
2022/08/07 06:12:27;;;;;;;1999.90;999.90;;;17.20;99.90;;;;;;4971469;28;20238;-64
2022/08/07 06:14:55;;;;;;;1999.90;999.90;;;17.90;99.90;;;;;;4956994;28;20206;-64
2022/08/07 06:17:22;;;;;;;1999.90;999.90;;;18.30;99.90;;;;;;4972667;28;20202;-65
2022/08/07 06:19:50;;;;;;;1999.90;999.90;;;18.20;99.90;;;;;;4977035;28;20208;-64
2022/08/07 06:22:18;;;;;;;1999.90;999.90;;;18.30;99.90;;;;;;4977034;28;20213;-66
2022/08/07 06:24:46;;;;;;;1999.90;999.90;;;18.40;99.90;;;;;;4977194;28;20201;-65
2022/08/07 06:27:21;;;;;;;1999.90;999.90;;;18.60;99.90;;;;;;4977162;28;20208;-65
2022/08/07 06:29:49;;;;;;;1999.90;999.90;;;19.00;99.90;;;;;;4976917;28;20670;-65
2022/08/07 06:32:16;;;;;;;1999.90;999.90;;;19.10;99.90;;;;;;4977097;28;20200;-63
2022/08/07 06:34:43;;;;;;;1999.90;999.90;;;19.40;99.90;;;;;;4976959;28;20204;-64
2022/08/07 06:37:10;;;;;;;1999.90;999.90;;;19.50;99.90;;;;;;4977016;28;20259;-64
2022/08/07 06:39:38;;;;;;;1999.90;999.90;;;19.80;99.90;;;;;;4976736;28;20202;-65
2022/08/07 06:42:08;;;;;;;1999.90;999.90;;;20.30;99.90;;;;;;4976605;28;20214;-65
2022/08/07 06:44:39;;;;;;;1999.90;999.90;;;20.20;99.90;;;;;;4976863;28;20206;-67
2022/08/07 06:47:07;;;;;;;1999.90;999.90;;;20.50;99.90;;;;;;4976795;28;20183;-65
2022/08/07 06:49:34;;;;;;;1999.90;999.90;;;20.30;99.90;;;;;;4976798;28;20194;-65
2022/08/07 06:52:02;;;;;;;1999.90;999.90;;;21.00;99.90;;;;;;4976428;28;20202;-65
2022/08/07 06:54:31;;;;;;;1999.90;999.90;;;21.20;99.90;;;;;;4976538;28;20198;-65
2022/08/07 06:56:59;;;;;;;1999.90;999.90;;;21.30;99.90;;;;;;4976658;28;20202;-65
2022/08/07 06:59:31;;;;;;;1999.90;999.90;;;21.40;1.00;;;;;;4976348;28;20224;-65
2022/08/07 07:02:00;;;;;;;1999.90;999.90;;;21.90;1.00;;;;;;4976275;28;20578;-65
2022/08/07 07:04:29;;;;;;;1999.90;999.90;;;21.70;1.00;;;;;;4976486;28;20204;-65
2022/08/07 07:06:57;;;;;;;1999.90;999.90;;;22.00;1.00;;;;;;4976222;28;20668;-65
2022/08/07 07:09:26;;;;;;;1999.90;999.90;;;22.40;1.00;;;;;;4975871;28;20198;-66
2022/08/07 07:12:01;;;;;;;1999.90;999.90;;;22.50;1.00;;;;;;4976133;28;20238;-66
2022/08/07 07:14:32;;;;;;;1999.90;999.90;;;22.50;1.00;;;;;;4975989;28;20643;-66
2022/08/07 07:17:06;;;;;;;1999.90;999.90;;;22.60;1.00;;;;;;4976265;28;20179;-66
2022/08/07 07:19:42;;;;;;;1999.90;999.90;;;23.10;1.00;;;;;;4976209;28;20190;-66
2022/08/07 07:22:10;;;;;;;1999.90;999.90;;;23.40;99.90;;;;;;4976218;28;20214;-65
2022/08/07 07:24:38;;;;;;;1999.90;999.90;;;23.60;39.80;;;;;;4975435;28;20221;-69
2022/08/07 07:27:07;;;;;;;1999.90;999.90;;;23.60;1.00;;;;;;4975783;28;20213;-67
2022/08/07 07:29:37;;;;;;;1999.90;999.90;;;23.50;1.00;;;;;;4976003;28;20210;-67
2022/08/07 07:32:09;;;;;;;1999.90;999.90;;;23.40;1.00;;;;;;4976032;28;20182;-66
2022/08/07 07:34:42;;;;;;;1999.90;999.90;;;23.90;1.00;;;;;;4975648;28;20190;-66
2022/08/07 07:37:11;;;;;;;1999.90;999.90;;;24.20;1.00;;;;;;4975704;28;20179;-68
2022/08/07 07:39:39;;;;;;;1999.90;999.90;;;24.30;99.90;;;;;;4975263;28;20206;-69
2022/08/07 07:42:09;;;;;;;1999.90;999.90;;;24.60;99.90;;;;;;4975778;28;20222;-68
2022/08/07 07:44:39;;;;;;;1999.90;999.90;;;24.40;1.00;;;;;;4975537;28;20545;-69
2022/08/07 07:47:10;;;;;;;1999.90;999.90;;;24.40;1.00;;;;;;4975768;28;20190;-69
2022/08/07 07:49:38;;;;;;;1999.90;999.90;;;24.80;1.00;;;;;;4975496;28;20189;-69
2022/08/07 07:52:07;;;;;;;1999.90;999.90;;;25.00;1.00;;;;;;4975673;28;20198;-69
2022/08/07 07:54:35;;;;;;;1999.90;999.90;;;25.30;1.00;;;;;;4975326;28;20213;-69
2022/08/07 07:57:05;;;;;;;1999.90;999.90;;;25.30;1.00;;;;;;4975581;28;20198;-70
2022/08/07 07:59:33;;;;;;;1999.90;999.90;;;25.40;99.90;;;;;;4975230;28;20563;-71
2022/08/07 08:02:03;;;;;;;1999.90;999.90;;;25.70;1.00;;;;;;4975549;28;20217;-70
2022/08/07 08:04:35;;;;;;;1999.90;999.90;;;25.70;1.00;;;;;;4975193;28;20195;-69
2022/08/07 08:07:02;;;;;;;1999.90;999.90;;;26.00;1.00;;;;;;4975421;28;20249;-68
2022/08/07 08:09:31;;;;;;;1999.90;999.90;;;25.80;99.90;;;;;;4959143;28;20203;-67
2022/08/07 08:12:02;;;;;;;1999.90;999.90;;;25.80;99.90;;;;;;4955463;29;20231;-68
2022/08/07 08:14:30;;;;;;;1999.90;999.90;;;26.00;99.90;;;;;;4955659;29;20237;-69
2022/08/07 08:17:01;;;;;;;1999.90;999.90;;;26.20;92.80;;;;;;4963113;28;20202;-68
2022/08/07 08:19:30;;;;;;;1999.90;999.90;;;26.20;99.90;;;;;;4955559;29;20188;-66
2022/08/07 08:27:35;;;;;;;1999.90;999.90;;;27.00;1.00;;;;;;4961982;28;20201;-68
2022/08/07 08:30:06;;;;;;;1999.90;999.90;;;26.80;99.90;;;;;;4962905;28;20199;-68
2022/08/07 08:32:37;;;;;;;1999.90;999.90;;;26.70;99.90;;;;;;4962650;28;20187;-68
2022/08/07 08:35:06;;;;;;;1999.90;999.90;;;26.60;1.00;;;;;;4965463;28;20202;-69
2022/08/07 08:37:37;;;;;;;1999.90;999.90;;;26.80;1.00;;;;;;4960558;28;20668;-68
2022/08/07 08:40:10;;;;;;;1999.90;999.90;;;26.90;99.90;;;;;;4960304;28;20187;-69
2022/08/07 08:42:43;;;;;;;1999.90;999.90;;;26.90;1.00;;;;;;4964445;28;20673;-68
2022/08/07 08:45:17;;;;;;;1999.90;999.90;;;27.00;1.00;;;;;;4969098;28;20213;-69
2022/08/07 08:47:54;;;;;;;1999.90;999.90;;;27.10;1.00;;;;;;4974199;28;20192;-69
2022/08/07 08:50:23;;;;;;;1999.90;999.90;;;27.20;99.90;;;;;;4974493;28;20193;-69
2022/08/07 08:53:02;;;;;;;1999.90;999.90;;;27.30;1.00;;;;;;4973301;28;20220;-67
2022/08/07 08:55:36;;;;;;;1999.90;999.90;;;27.50;1.00;;;;;;4971283;28;20275;-68
2022/08/07 08:58:10;;;;;;;1999.90;999.90;;;28.00;1.00;;;;;;4959502;28;20552;-67
2022/08/07 09:00:44;;;;;;;1999.90;999.90;;;28.00;1.00;;;;;;4969670;28;20195;-66
2022/08/07 09:03:22;;;;;;;1999.90;999.90;;;28.30;1.00;;;;;;4970773;28;20215;-67
2022/08/07 09:05:55;;;;;;;1999.90;999.90;;;27.60;1.00;;;;;;4963150;28;20199;-67
2022/08/07 09:08:44;;;;;;;1999.90;999.90;;;27.90;1.00;;;;;;4954698;29;20197;-68
2022/08/07 09:11:17;;;;;;;1999.90;999.90;;;27.80;1.00;;;;;;4954394;29;20235;-68
2022/08/07 09:13:58;;;;;;;1999.90;999.90;;;28.30;1.00;;;;;;4954749;29;20184;-68
2022/08/07 09:16:32;;;;;;;1999.90;999.90;;;28.60;1.00;;;;;;4954479;29;20187;-68
2022/08/07 09:19:19;;;;;;;1999.90;999.90;;;28.80;1.00;;;;;;4954930;29;20183;-68
2022/08/07 09:21:53;;;;;;;1999.90;999.90;;;27.80;1.00;;;;;;4960591;28;20683;-69
2022/08/07 09:24:33;;;;;;;1999.90;999.90;;;28.30;1.00;;;;;;4960805;28;20205;-68
2022/08/07 09:27:13;;;;;;;1999.90;999.90;;;28.40;99.90;;;;;;4954727;29;20233;-68
2022/08/07 09:29:54;;;;;;;1999.90;999.90;;;28.40;99.90;;;;;;4954405;29;20663;-68
2022/08/07 09:32:31;;;;;;;1999.90;999.90;;;28.10;1.00;;;;;;4954450;29;20183;-68
2022/08/07 09:35:06;;;;;;;1999.90;999.90;;;27.90;1.00;;;;;;4954935;29;20193;-68
2022/08/07 09:37:40;;;;;;;1999.90;999.90;;;28.20;1.00;;;;;;4954112;29;20187;-70
2022/08/07 09:40:20;;;;;;;1999.90;999.90;;;28.40;1.00;;;;;;4954555;29;20191;-69
2022/08/07 09:42:56;;;;;;;1999.90;999.90;;;28.40;1.00;;;;;;4954566;29;20214;-68
2022/08/07 09:45:37;;;;;;;1999.90;999.90;;;28.40;1.00;;;;;;4954258;29;20194;-69
2022/08/07 09:48:15;;;;;;;1999.90;999.90;;;28.40;1.00;;;;;;4953761;29;20187;-69
2022/08/07 09:50:54;;;;;;;1999.90;999.90;;;28.80;1.00;;;;;;4954485;29;20241;-70
2022/08/07 09:53:24;;;;;;;1999.90;999.90;;;29.20;1.00;;;;;;4954162;29;20187;-70
2022/08/07 09:56:12;;;;;;;1999.90;999.90;;;29.30;1.00;;;;;;4954463;29;20183;-70
2022/08/07 09:59:00;;;;;;;1999.90;999.90;;;28.80;1.00;;;;;;4954428;29;20190;-69
2022/08/07 10:01:56;;;;;;;1999.90;999.90;;;28.40;1.00;;;;;;4954352;29;20209;-69
2022/08/07 10:04:51;;;;;;;1999.90;999.90;;;28.70;1.00;;;;;;4954016;29;20195;-69
2022/08/07 10:07:33;;;;;;;1999.90;999.90;;;28.40;1.00;;;;;;4954341;29;20197;-70
2022/08/07 10:10:14;;;;;;;1999.90;999.90;;;28.90;1.00;;;;;;4954271;29;20197;-69
2022/08/07 10:13:01;;;;;;;1999.90;999.90;;;28.30;1.00;;;;;;4935244;29;20183;-69
2022/08/07 10:15:46;;;;;;;1999.90;999.90;;;28.20;1.00;;;;;;4934894;29;20638;-70
2022/08/07 10:18:40;;;;;;;1999.90;999.90;;;27.80;1.00;;;;;;4935218;29;20191;-70
2022/08/07 10:21:21;;;;;;;1999.90;999.90;;;28.20;1.00;;;;;;4935140;29;20184;-70
2022/08/07 10:24:09;;;;;;;1999.90;999.90;;;28.80;1.00;;;;;;4935164;29;20545;-70
2022/08/07 10:26:48;;;;;;;1999.90;999.90;;;28.80;1.00;;;;;;4934797;29;20192;-69
2022/08/07 10:29:36;;;;;;;1999.90;999.90;;;29.10;1.00;;;;;;4935003;29;20206;-70
2022/08/07 10:32:20;;;;;;;1999.90;999.90;;;29.30;1.00;;;;;;4934673;29;20196;-68
2022/08/07 10:35:04;;;;;;;1999.90;999.90;;;29.20;1.00;;;;;;4934709;28;20689;-69
2022/08/07 10:37:45;;;;;;;1999.90;999.90;;;29.00;1.00;;;;;;4934811;29;20211;-69
2022/08/07 10:40:19;;;;;;;1999.90;999.90;;;29.20;1.00;;;;;;4934635;29;20596;-67
2022/08/07 10:42:58;;;;;;;1999.90;999.90;;;29.40;1.00;;;;;;4934581;29;20568;-68
2022/08/07 10:45:31;;;;;;;1999.90;999.90;;;28.80;1.00;;;;;;4934611;29;20717;-67
2022/08/07 10:48:11;;;;;;;1999.90;999.90;;;28.70;1.00;;;;;;4934620;29;20196;-67
2022/08/07 10:50:45;;;;;;;1999.90;999.90;;;29.00;1.00;;;;;;4934561;29;20200;-69
2022/08/07 10:53:22;;;;;;;1999.90;999.90;;;29.20;1.00;;;;;;4934358;29;20665;-69
2022/08/07 10:55:58;;;;;;;1999.90;999.90;;;29.20;1.00;;;;;;4934473;29;20183;-70
2022/08/07 10:58:46;;;;;;;1999.90;999.90;;;28.90;1.00;;;;;;4934556;29;20192;-69
2022/08/07 11:01:38;;;;;;;1999.90;999.90;;;29.20;1.00;;;;;;4936521;29;20254;-68
2022/08/07 11:04:12;;;;;;;1999.90;999.90;;;29.10;1.00;;;;;;4948821;29;20195;-68
2022/08/07 11:06:50;;;;;;;1999.90;999.90;;;29.40;1.00;;;;;;4943927;28;20191;-69
2022/08/07 11:09:22;;;;;;;1999.90;999.90;;;30.00;1.00;;;;;;4949520;29;20214;-69
2022/08/07 11:11:56;;;;;;;1999.90;999.90;;;29.20;1.00;;;;;;4950337;29;20222;-68
2022/08/07 11:14:29;;;;;;;1999.90;999.90;;;28.40;1.00;;;;;;4964248;28;20198;-68
2022/08/07 11:17:02;;;;;;;1999.90;999.90;;;28.60;1.00;;;;;;4964174;28;20180;-69
2022/08/07 11:19:36;;;;;;;1999.90;999.90;;;28.80;1.00;;;;;;4967679;28;20217;-67
2022/08/07 11:22:10;;;;;;;1999.90;999.90;;;28.50;1.00;;;;;;4963153;28;20215;-69
2022/08/07 11:24:45;;;;;;;1999.90;999.90;;;28.50;1.00;;;;;;4956177;28;20209;-70
2022/08/07 11:27:20;;;;;;;1999.90;999.90;;;29.30;1.00;;;;;;4963380;28;20187;-70
2022/08/07 11:29:52;;;;;;;1999.90;999.90;;;29.40;1.00;;;;;;4962477;28;20187;-70
2022/08/07 11:32:30;;;;;;;1999.90;999.90;;;29.00;1.00;;;;;;4959245;28;20197;-69
2022/08/07 11:35:01;;;;;;;1999.90;999.90;;;29.40;1.00;;;;;;4955344;29;20198;-68
2022/08/07 11:37:50;;;;;;;1999.90;999.90;;;29.60;1.00;;;;;;4954483;29;20187;-70
2022/08/07 11:40:30;;;;;;;1999.90;999.90;;;29.60;1.00;;;;;;4954356;29;20616;-69
2022/08/07 11:43:08;;;;;;;1999.90;999.90;;;29.60;1.00;;;;;;4954225;29;20207;-71
2022/08/07 11:45:45;;;;;;;1999.90;999.90;;;29.60;1.00;;;;;;4954143;29;20197;-70
2022/08/07 11:48:57;;;;;;;1999.90;999.90;;;29.80;1.00;;;;;;4955202;28;20193;-70
2022/08/07 11:51:41;;;;;;;1999.90;999.90;;;30.10;1.00;;;;;;4953096;29;20544;-70
2022/08/07 11:54:38;;;;;;;1999.90;999.90;;;29.80;1.00;;;;;;4955044;29;20242;-69
2022/08/07 11:57:19;;;;;;;1999.90;999.90;;;29.70;1.00;;;;;;4954235;29;20194;-70
2022/08/07 12:00:05;;;;;;;1999.90;999.90;;;29.70;1.00;;;;;;4954940;29;20183;-71
2022/08/07 12:03:09;;;;;;;1999.90;999.90;;;29.50;1.00;;;;;;4953927;28;20206;-71
2022/08/07 12:05:46;;;;;;;1999.90;999.90;;;29.60;1.00;;;;;;4953945;29;20187;-71
2022/08/07 12:08:18;;;;;;;1999.90;999.90;;;29.80;1.00;;;;;;4953076;29;20238;-71
2022/08/07 12:10:49;;;;;;;1999.90;999.90;;;29.80;1.00;;;;;;4953500;28;20237;-71
2022/08/07 12:13:25;;;;;;;1999.90;999.90;;;29.90;1.00;;;;;;4953403;29;20238;-70
2022/08/07 12:15:56;;;;;;;1999.90;999.90;;;29.70;1.00;;;;;;4953973;29;20186;-70
2022/08/07 12:18:29;;;;;;;1999.90;999.90;;;29.40;1.00;;;;;;4953906;29;20249;-69
2022/08/07 12:21:10;;;;;;;1999.90;999.90;;;29.60;1.00;;;;;;4953547;28;20179;-68
2022/08/07 12:23:46;;;;;;;1999.90;999.90;;;29.30;1.00;;;;;;4952285;29;20221;-69
2022/08/07 12:26:23;;;;;;;1999.90;999.90;;;29.20;1.00;;;;;;4954377;29;20197;-69
2022/08/07 12:28:58;;;;;;;1999.90;999.90;;;29.30;1.00;;;;;;4952583;29;20187;-69
2022/08/07 12:31:31;;;;;;;1999.90;999.90;;;29.00;1.00;;;;;;4953141;29;20187;-69
2022/08/07 12:33:59;;;;;;;1999.90;999.90;;;29.70;1.00;;;;;;4953463;29;20183;-69